createdAt,value
2022-11-20T00:03:43.570Z,18.4
2022-11-20T00:09:21.969Z,17.8
2022-11-20T00:14:44.534Z,17.3
2022-11-20T00:20:22.482Z,18.6
2022-11-20T00:26:00.061Z,18.5
2022-11-20T00:31:42.290Z,18.6
2022-11-20T00:42:42.461Z,18.6
2022-11-20T00:52:54.840Z,18.6
2022-11-20T00:58:04.472Z,18.6
2022-11-20T01:03:27.219Z,18.1
2022-11-20T01:08:33.931Z,18.2
2022-11-20T01:14:16.264Z,18.2
2022-11-20T01:19:53.545Z,17.9
2022-11-20T01:25:30.793Z,18
2022-11-20T01:30:53.014Z,17.9
2022-11-20T01:36:15.014Z,18.1
2022-11-20T01:41:36.737Z,18.1
2022-11-20T01:46:27.839Z,18.3
2022-11-20T01:51:49.025Z,18.3
2022-11-20T01:57:27.043Z,17.9
2022-11-20T02:02:49.751Z,18.4
2022-11-20T02:07:56.184Z,18.2
2022-11-20T02:13:39.920Z,18.1
2022-11-20T02:24:24.560Z,18.1
2022-11-20T02:29:45.764Z,18
2022-11-20T02:35:07.240Z,18
2022-11-20T02:40:44.585Z,18.1
2022-11-20T02:46:20.768Z,18.4
2022-11-20T02:51:27.669Z,18.3
2022-11-20T02:57:03.024Z,18.3
2022-11-20T03:02:24.211Z,18
2022-11-20T03:07:45.128Z,17.9
2022-11-20T03:13:06.932Z,17.9
2022-11-20T03:18:34.071Z,18
2022-11-20T03:23:25.055Z,17.9
2022-11-20T03:29:02.645Z,17.7
2022-11-20T03:34:45.156Z,17.7
2022-11-20T03:40:07.142Z,17.4
2022-11-20T03:45:43.901Z,17.8
2022-11-20T03:51:10.000Z,17.6
2022-11-20T03:56:16.822Z,17.3
2022-11-20T04:01:22.835Z,17.1
2022-11-20T04:06:44.706Z,17.4
2022-11-20T04:12:22.509Z,17.5
2022-11-20T04:17:44.613Z,17.5
2022-11-20T04:23:25.865Z,17.1
2022-11-20T04:29:04.639Z,17.3
2022-11-20T04:39:47.995Z,17.3
2022-11-20T04:45:25.222Z,17.4
2022-11-20T04:51:03.019Z,17.3
2022-11-20T04:56:39.606Z,17.3
2022-11-20T05:01:33.794Z,17.3
2022-11-20T05:06:56.028Z,17.2
2022-11-20T05:12:33.402Z,17.1
2022-11-20T05:18:11.874Z,17.2
2022-11-20T05:28:58.967Z,17.3
2022-11-20T05:34:36.602Z,16.9
2022-11-20T05:40:15.600Z,17.3
2022-11-20T05:45:53.372Z,17.4
2022-11-20T05:51:17.720Z,17.4
2022-11-20T05:56:56.806Z,17.1
2022-11-20T06:02:33.896Z,17.1
2022-11-20T06:08:11.311Z,17.1
2022-11-20T06:24:39.251Z,16.7
2022-11-20T06:30:20.292Z,17.1
2022-11-20T06:36:00.394Z,17.1
2022-11-20T06:41:08.764Z,17.3
2022-11-20T06:46:46.445Z,17.7
2022-11-20T06:52:23.844Z,17.1
2022-11-20T06:58:09.765Z,17.2
2022-11-20T07:03:52.949Z,17.4
2022-11-20T07:09:31.756Z,17.6
2022-11-20T07:15:09.394Z,17.6
2022-11-20T07:20:52.307Z,16.9
2022-11-20T07:26:31.114Z,16.9
2022-11-20T07:32:10.186Z,17.4
2022-11-20T07:37:47.566Z,17.1
2022-11-20T07:42:53.901Z,17.1
2022-11-20T07:48:15.393Z,17.1
2022-11-20T07:53:53.411Z,17.3
2022-11-20T07:59:30.967Z,17.1
2022-11-20T08:10:19.975Z,16.4
2022-11-20T08:15:29.950Z,16.8
2022-11-20T08:21:42.663Z,17.4
2022-11-20T08:26:49.351Z,17.2
2022-11-20T08:32:36.401Z,17.3
2022-11-20T08:38:17.529Z,17.3
2022-11-20T08:44:01.920Z,16.8
2022-11-20T08:49:39.618Z,16.5
2022-11-20T08:55:16.895Z,15.9
2022-11-20T09:02:06.282Z,15.8
2022-11-20T09:07:48.791Z,16
2022-11-20T09:13:48.233Z,15.8
2022-11-20T09:19:13.373Z,15.8
2022-11-20T09:24:51.900Z,15.6
2022-11-20T09:30:14.085Z,15.6
2022-11-20T09:35:35.822Z,15.6
2022-11-20T09:41:17.691Z,15.7
2022-11-20T09:46:59.394Z,16.1
2022-11-20T09:52:40.625Z,16.4
2022-11-20T09:58:20.929Z,16.6
2022-11-20T10:03:57.938Z,17.6
2022-11-20T10:10:05.856Z,18.1
2022-11-20T10:15:48.064Z,18.6
2022-11-20T10:21:29.778Z,17.8
2022-11-20T10:27:08.574Z,17.2
2022-11-20T10:38:54.960Z,16.6
2022-11-20T10:44:32.647Z,15.4
2022-11-20T10:49:59.682Z,14.8
2022-11-20T10:55:26.680Z,14.7
2022-11-20T11:00:50.794Z,14.4
2022-11-20T11:06:28.547Z,13.9
2022-11-20T11:11:51.267Z,13.1
2022-11-20T11:17:13.869Z,12.9
2022-11-20T11:22:35.852Z,12.8
2022-11-20T11:28:27.223Z,12.8
2022-11-20T11:34:04.746Z,12.8
2022-11-20T11:39:51.898Z,12.8
2022-11-20T11:45:49.031Z,13.4
2022-11-20T11:51:11.951Z,13.6
2022-11-20T11:56:24.358Z,13.9
2022-11-20T12:01:31.201Z,13.9
2022-11-20T12:06:56.481Z,14.1
2022-11-20T12:12:50.479Z,14.3
2022-11-20T12:18:12.624Z,14.4
2022-11-20T12:23:50.824Z,13.9
2022-11-20T12:29:28.393Z,14.1
2022-11-20T12:35:10.131Z,13.7
2022-11-20T12:40:33.944Z,13.3
2022-11-20T12:51:30.935Z,13.1
2022-11-20T12:57:08.666Z,13.2
2022-11-20T13:02:46.697Z,13.4
2022-11-20T13:13:52.957Z,13
2022-11-20T13:19:30.056Z,12.9
2022-11-20T13:25:10.517Z,13.3
2022-11-20T13:30:49.916Z,13.6
2022-11-20T13:36:27.502Z,13.1
2022-11-20T13:42:05.609Z,12.9
2022-11-20T13:47:48.030Z,12.9
2022-11-20T13:53:27.479Z,13
2022-11-20T13:59:05.405Z,12.9
2022-11-20T14:05:12.364Z,12.8
2022-11-20T14:10:50.704Z,12.6
2022-11-20T14:16:34.923Z,12.6
2022-11-20T14:22:12.424Z,12.4
2022-11-20T14:27:35.195Z,12.6
2022-11-20T14:33:12.787Z,12.4
2022-11-20T14:38:50.130Z,12.3
2022-11-20T14:44:28.266Z,12.3
2022-11-20T14:50:09.934Z,12.1
2022-11-20T14:55:47.333Z,12.1
2022-11-20T15:01:09.650Z,12.1
2022-11-20T15:06:51.886Z,12.1
2022-11-20T15:12:14.108Z,12.1
2022-11-20T15:17:55.044Z,12
2022-11-20T15:23:01.682Z,11.9
2022-11-20T15:28:39.286Z,11.9
2022-11-20T15:34:17.482Z,11.9
2022-11-20T15:39:58.979Z,11.2
2022-11-20T15:45:36.001Z,10.6
2022-11-20T15:56:16.482Z,10.6
2022-11-20T16:01:39.032Z,10.5
2022-11-20T16:07:07.948Z,10.4
2022-11-20T16:12:30.151Z,10.4
2022-11-20T16:18:08.944Z,10.5
2022-11-20T16:23:48.131Z,10.4
2022-11-20T16:29:26.633Z,10.4
2022-11-20T16:35:04.527Z,10.4
2022-11-20T16:40:15.457Z,10.3
2022-11-20T16:45:42.694Z,10.3
2022-11-20T16:51:20.715Z,10.4
2022-11-20T16:56:43.519Z,10.4
2022-11-20T17:02:05.999Z,10.3
2022-11-20T17:07:44.405Z,10.4
2022-11-20T17:13:22.183Z,10.3
2022-11-20T17:19:03.504Z,10.4
2022-11-20T17:24:30.532Z,10.3
2022-11-20T17:29:58.346Z,10.4
2022-11-20T17:35:37.252Z,10.4
2022-11-20T17:46:44.780Z,10.4
2022-11-20T17:52:23.591Z,10.4
2022-11-20T17:58:02.867Z,10.4
2022-11-20T18:03:47.503Z,10.6
2022-11-20T18:09:26.778Z,10.5
2022-11-20T18:15:05.356Z,10.4
2022-11-20T18:21:19.991Z,10.4
2022-11-20T18:26:44.587Z,10.4
2022-11-20T18:32:14.390Z,10.4
2022-11-20T18:37:43.424Z,10.6
2022-11-20T18:43:21.905Z,10.6
2022-11-20T18:48:44.819Z,10.6
2022-11-20T18:54:06.142Z,10.6
2022-11-20T18:59:33.489Z,10.6
2022-11-20T19:05:17.809Z,10.4
2022-11-20T19:16:20.622Z,10.6
2022-11-20T19:21:57.945Z,10.3
2022-11-20T19:27:07.071Z,10.3
2022-11-20T19:32:51.679Z,10.6
2022-11-20T19:38:35.602Z,10.6
2022-11-20T19:43:58.141Z,10.6
2022-11-20T19:55:17.424Z,10.4
2022-11-20T20:01:02.685Z,10.3
2022-11-20T20:06:25.359Z,10.1
2022-11-20T20:11:51.313Z,9.9
2022-11-20T20:22:51.507Z,9.9
2022-11-20T20:28:29.334Z,9.9
2022-11-20T20:33:51.587Z,9.9
2022-11-20T20:38:58.231Z,9.8
2022-11-20T20:44:04.837Z,9.8
2022-11-20T20:49:27.800Z,9.8
2022-11-20T20:55:07.342Z,9.8
2022-11-20T21:00:30.365Z,9.8
2022-11-20T21:05:53.144Z,9.9
2022-11-20T21:11:02.759Z,9.9
2022-11-20T21:16:40.438Z,9.7
2022-11-20T21:22:19.591Z,9.9
2022-11-20T21:27:57.717Z,9.9
2022-11-20T21:33:23.852Z,9.8
2022-11-20T21:38:48.159Z,9.8
2022-11-20T21:44:46.230Z,9.8
2022-11-20T21:50:23.919Z,9.7
2022-11-20T22:01:26.021Z,9.6
2022-11-20T22:07:03.949Z,9.5
2022-11-20T22:12:41.612Z,9.4
2022-11-20T22:18:45.633Z,9.4
2022-11-20T22:24:07.194Z,9.4
2022-11-20T22:29:32.802Z,9.3
2022-11-20T22:34:59.613Z,9.3
2022-11-20T22:40:40.579Z,9.3
2022-11-20T22:46:02.363Z,9.3
2022-11-20T22:51:43.098Z,9.3
2022-11-20T22:57:20.217Z,9.3
2022-11-20T23:02:57.330Z,9.1
2022-11-20T23:08:35.023Z,9.2
2022-11-20T23:14:12.587Z,9.1
2022-11-20T23:19:50.959Z,9.1
2022-11-20T23:25:28.229Z,9.1
2022-11-20T23:31:10.339Z,9.1
2022-11-20T23:36:32.628Z,9.1
2022-11-20T23:42:09.932Z,9
2022-11-20T23:47:46.984Z,8.9
2022-11-20T23:53:24.947Z,8.9
2022-11-20T23:58:53.406Z,8.9
